Terminal Aerodrome Forecast
Issued by NWS

Home | Current Version | Previous Version | Text Only | Print | Product List | Glossary On
Versions: 1 2 3 4 5 6 7 8 9 10 11 12 13 14 15 16
826
FTUS43 KTOP 011730
TAFFOE
TAF
KFOE 011730Z 0118/0218 VRB03KT P6SM SCT130
     FM021100 00000KT P6SM SCT100
      TEMPO 0211/0214 5SM BR=

USA.gov is the U.S. government's official web portal to all federal, state and local government web resources and services.